createdAt,value
2022-10-20T00:03:13.544Z,8.15
2022-10-20T00:07:15.224Z,8.10
2022-10-20T00:11:19.732Z,7.28
2022-10-20T00:15:21.448Z,7.80
2022-10-20T00:19:23.124Z,7.40
2022-10-20T00:23:25.043Z,7.45
2022-10-20T00:27:26.845Z,6.87
2022-10-20T00:31:28.508Z,7.50
2022-10-20T00:35:31.513Z,7.80
2022-10-20T00:39:33.204Z,7.20
2022-10-20T00:43:44.069Z,6.93
2022-10-20T00:47:55.624Z,7.22
2022-10-20T00:51:57.284Z,7.10
2022-10-20T00:56:00.453Z,6.22
2022-10-20T01:00:02.527Z,6.68
2022-10-20T01:04:04.566Z,6.90
2022-10-20T01:08:06.275Z,7.60
2022-10-20T01:12:21.636Z,6.82
2022-10-20T01:16:42.329Z,6.90
2022-10-20T01:21:20.980Z,6.70
2022-10-20T01:25:50.340Z,6.68
2022-10-20T01:30:09.491Z,7.05
2022-10-20T01:34:16.996Z,6.47
2022-10-20T01:38:28.128Z,7.45
2022-10-20T01:42:29.960Z,7.07
2022-10-20T01:46:33.762Z,7.18
2022-10-20T01:50:36.816Z,7.18
2022-10-20T01:54:39.249Z,5.97
2022-10-20T01:59:06.451Z,6.32
2022-10-20T02:03:14.329Z,5.97
2022-10-20T02:07:24.653Z,6.05
2022-10-20T02:11:48.656Z,5.78
2022-10-20T02:15:56.356Z,6.03
2022-10-20T02:19:58.809Z,5.72
2022-10-20T02:24:05.621Z,6.30
2022-10-20T02:28:11.282Z,6.20
2022-10-20T02:32:14.861Z,6.22
2022-10-20T02:36:20.312Z,6.78
2022-10-20T02:40:22.251Z,5.60
2022-10-20T02:44:23.985Z,6.10
2022-10-20T02:48:25.629Z,5.70
2022-10-20T02:52:27.433Z,5.53
2022-10-20T02:56:31.001Z,5.57
2022-10-20T03:00:33.015Z,5.10
2022-10-20T03:04:34.665Z,5.50
2022-10-20T03:08:36.423Z,5.37
2022-10-20T03:12:38.095Z,5.22
2022-10-20T03:16:39.811Z,6.03
2022-10-20T03:20:41.474Z,6.68
2022-10-20T03:24:43.230Z,5.82
2022-10-20T03:28:44.896Z,5.93
2022-10-20T03:32:46.604Z,6.10
2022-10-20T03:36:48.302Z,5.22
2022-10-20T03:40:50.077Z,5.32
2022-10-20T03:44:51.731Z,5.18
2022-10-20T03:48:53.400Z,5.55
2022-10-20T03:52:55.059Z,5.43
2022-10-20T03:56:56.822Z,5.07
2022-10-20T04:00:58.648Z,5.22
2022-10-20T04:05:00.847Z,5.07
2022-10-20T04:09:02.701Z,5.68
2022-10-20T04:13:04.776Z,5.18
2022-10-20T04:17:06.439Z,5.20
2022-10-20T04:21:08.125Z,5.00
2022-10-20T04:25:11.977Z,5.22
2022-10-20T04:29:13.636Z,5.45
2022-10-20T04:33:15.394Z,5.15
2022-10-20T04:37:17.062Z,5.05
2022-10-20T04:41:18.742Z,5.40
2022-10-20T04:45:20.415Z,5.18
2022-10-20T04:49:22.623Z,5.30
2022-10-20T04:53:24.340Z,4.82
2022-10-20T04:57:26.727Z,4.82
2022-10-20T05:01:30.120Z,4.93
2022-10-20T05:05:31.789Z,4.70
2022-10-20T05:09:33.547Z,4.68
2022-10-20T05:13:35.237Z,4.97
2022-10-20T05:17:37.319Z,4.82
2022-10-20T05:21:39.139Z,4.60
2022-10-20T05:25:40.922Z,4.80
2022-10-20T05:29:42.556Z,4.70
2022-10-20T05:33:46.313Z,5.05
2022-10-20T05:37:47.964Z,4.80
2022-10-20T05:41:49.632Z,4.95
2022-10-20T05:45:54.893Z,4.90
2022-10-20T05:49:56.515Z,5.22
2022-10-20T05:53:59.339Z,5.00
2022-10-20T05:58:01.021Z,5.47
2022-10-20T06:02:02.700Z,5.40
2022-10-20T06:06:04.730Z,5.15
2022-10-20T06:10:06.620Z,5.43
2022-10-20T06:14:09.309Z,4.75
2022-10-20T06:18:11.002Z,4.93
2022-10-20T06:22:13.541Z,5.75
2022-10-20T06:26:24.234Z,5.53
2022-10-20T06:30:25.918Z,5.50
2022-10-20T06:34:27.600Z,5.37
2022-10-20T06:38:29.485Z,5.32
2022-10-20T06:42:31.312Z,5.55
2022-10-20T06:46:35.787Z,6.07
2022-10-20T06:50:37.476Z,5.22
2022-10-20T06:54:39.129Z,5.90
2022-10-20T06:58:42.890Z,5.95
2022-10-20T07:02:44.578Z,6.10
2022-10-20T07:06:47.052Z,5.87
2022-10-20T07:10:57.477Z,6.03
2022-10-20T07:14:59.137Z,7.12
2022-10-20T07:19:02.256Z,6.90
2022-10-20T07:23:03.928Z,6.18
2022-10-20T07:27:05.602Z,7.00
2022-10-20T07:31:10.691Z,7.30
2022-10-20T07:35:12.377Z,6.87
2022-10-20T07:39:14.141Z,7.45
2022-10-20T07:43:15.785Z,7.07
2022-10-20T07:47:17.487Z,7.45
2022-10-20T07:51:21.909Z,7.35
2022-10-20T07:55:38.016Z,7.30
2022-10-20T07:59:40.583Z,7.03
2022-10-20T08:03:42.553Z,6.85
2022-10-20T08:07:44.176Z,6.80
2022-10-20T08:11:45.832Z,7.15
2022-10-20T08:15:49.250Z,6.97
2022-10-20T08:20:08.428Z,6.95
2022-10-20T08:24:10.131Z,6.70
2022-10-20T08:28:11.853Z,6.55
2022-10-20T08:32:14.248Z,6.60
2022-10-20T08:36:15.964Z,6.05
2022-10-20T08:40:21.475Z,6.30
2022-10-20T08:44:26.927Z,6.85
2022-10-20T08:48:32.413Z,6.82
2022-10-20T08:52:34.340Z,6.78
2022-10-20T08:56:36.184Z,6.80
2022-10-20T09:00:39.082Z,6.62
2022-10-20T09:04:47.809Z,6.15
2022-10-20T09:08:49.767Z,6.30
2022-10-20T09:12:52.143Z,6.65
2022-10-20T09:17:00.388Z,6.70
2022-10-20T09:21:16.824Z,7.07
2022-10-20T09:25:23.932Z,5.95
2022-10-20T09:29:36.556Z,6.72
2022-10-20T09:33:38.332Z,6.80
2022-10-20T09:37:40.363Z,6.43
2022-10-20T09:41:42.885Z,6.82
2022-10-20T09:45:53.537Z,6.70
2022-10-20T09:50:02.372Z,6.45
2022-10-20T09:54:07.848Z,6.95
2022-10-20T09:58:28.334Z,6.50
2022-10-20T10:02:31.968Z,6.75
2022-10-20T10:06:42.262Z,6.72
2022-10-20T10:10:46.094Z,5.95
2022-10-20T10:14:59.902Z,6.00
2022-10-20T10:19:04.605Z,6.05
2022-10-20T10:23:21.042Z,6.37
2022-10-20T10:27:28.433Z,6.68
2022-10-20T10:31:32.995Z,6.68
2022-10-20T10:35:39.768Z,6.90
2022-10-20T10:39:42.273Z,7.10
2022-10-20T10:43:51.682Z,8.25
2022-10-20T10:47:56.102Z,6.85
2022-10-20T10:52:18.924Z,7.75
2022-10-20T10:56:37.952Z,7.80
2022-10-20T11:00:57.789Z,8.57
2022-10-20T11:05:24.737Z,8.07
2022-10-20T11:09:42.220Z,7.15
2022-10-20T11:13:51.506Z,7.50
2022-10-20T11:17:58.935Z,6.97
2022-10-20T11:22:25.663Z,7.25
2022-10-20T11:26:44.451Z,8.00
2022-10-20T11:30:46.208Z,7.93
2022-10-20T11:35:07.316Z,7.82
2022-10-20T11:39:35.319Z,8.30
2022-10-20T11:47:42.819Z,9.27
2022-10-20T11:51:59.706Z,9.35
2022-10-20T11:56:35.386Z,10.43
2022-10-20T12:00:37.061Z,10.65
2022-10-20T12:05:08.797Z,10.77
2022-10-20T12:09:41.430Z,11.98
2022-10-20T12:14:07.565Z,11.75
2022-10-20T12:18:25.067Z,12.15
2022-10-20T12:22:29.586Z,12.73
2022-10-20T12:26:33.970Z,12.55
2022-10-20T12:30:38.660Z,12.63
2022-10-20T12:34:41.858Z,13.32
2022-10-20T12:38:54.791Z,13.18
2022-10-20T12:42:56.816Z,12.85
2022-10-20T12:47:06.141Z,14.87
2022-10-20T12:51:20.190Z,14.13
2022-10-20T12:59:39.061Z,14.07
2022-10-20T13:03:46.620Z,12.52
2022-10-20T13:07:48.339Z,12.60
2022-10-20T13:11:58.700Z,12.55
2022-10-20T13:16:01.760Z,13.13
2022-10-20T13:20:36.516Z,12.43
2022-10-20T13:24:42.694Z,13.10
2022-10-20T13:28:55.326Z,12.35
2022-10-20T13:33:11.605Z,12.40
2022-10-20T13:37:31.166Z,11.98
2022-10-20T13:41:51.795Z,12.50
2022-10-20T13:45:56.503Z,11.05
2022-10-20T13:50:27.424Z,12.23
2022-10-20T13:54:33.373Z,11.65
2022-10-20T13:58:35.367Z,12.35
2022-10-20T14:02:37.736Z,11.38
2022-10-20T14:06:39.613Z,11.43
2022-10-20T14:10:50.407Z,10.77
2022-10-20T14:14:59.291Z,9.80
2022-10-20T14:19:11.215Z,9.38
2022-10-20T14:23:13.147Z,9.77
2022-10-20T14:27:21.206Z,10.20
2022-10-20T14:31:24.356Z,9.90
2022-10-20T14:35:42.528Z,10.02
2022-10-20T14:39:49.568Z,8.93
2022-10-20T14:44:05.071Z,9.82
2022-10-20T14:48:16.213Z,9.25
2022-10-20T14:52:21.301Z,9.88
2022-10-20T14:56:25.244Z,9.27
2022-10-20T15:00:36.626Z,10.60
2022-10-20T15:04:43.212Z,9.90
2022-10-20T15:08:57.615Z,9.27
2022-10-20T15:12:59.648Z,9.93
2022-10-20T15:17:01.556Z,9.70
2022-10-20T15:21:03.256Z,9.73
2022-10-20T15:25:05.123Z,10.10
2022-10-20T15:29:07.956Z,10.05
2022-10-20T15:33:10.006Z,10.70
2022-10-20T15:37:11.696Z,9.98
2022-10-20T15:41:25.549Z,9.93
2022-10-20T15:45:30.701Z,10.07
2022-10-20T15:49:32.399Z,10.70
2022-10-20T15:53:34.142Z,10.13
2022-10-20T15:57:36.228Z,11.00
2022-10-20T16:01:38.458Z,10.27
2022-10-20T16:05:40.225Z,10.23
2022-10-20T16:09:41.919Z,11.07
2022-10-20T16:13:43.674Z,10.77
2022-10-20T16:17:46.469Z,11.12
2022-10-20T16:21:48.230Z,12.93
2022-10-20T16:25:49.887Z,12.63
2022-10-20T16:29:51.584Z,11.90
2022-10-20T16:33:53.291Z,12.13
2022-10-20T16:37:54.988Z,11.82
2022-10-20T16:41:56.648Z,11.93
2022-10-20T16:45:58.350Z,11.27
2022-10-20T16:50:00.052Z,11.77
2022-10-20T16:54:03.536Z,14.40
2022-10-20T16:58:05.387Z,12.80
2022-10-20T17:02:07.497Z,11.80
2022-10-20T17:06:10.207Z,11.60
2022-10-20T17:10:11.885Z,13.60
2022-10-20T17:14:13.580Z,12.98
2022-10-20T17:18:15.312Z,12.18
2022-10-20T17:22:17.091Z,12.10
2022-10-20T17:26:22.044Z,12.45
2022-10-20T17:30:23.744Z,12.20
2022-10-20T17:34:25.771Z,13.13
2022-10-20T17:38:29.259Z,12.50
2022-10-20T17:42:32.518Z,11.73
2022-10-20T17:46:34.924Z,11.57
2022-10-20T17:50:36.980Z,11.48
2022-10-20T17:54:38.665Z,11.65
2022-10-20T17:58:43.743Z,11.40
2022-10-20T18:02:50.267Z,12.40
2022-10-20T18:06:52.036Z,12.87
2022-10-20T18:10:53.726Z,12.30
2022-10-20T18:14:55.365Z,11.55
2022-10-20T18:23:05.070Z,11.32
2022-10-20T18:27:06.751Z,11.63
2022-10-20T18:31:14.286Z,13.07
2022-10-20T18:35:16.157Z,12.00
2022-10-20T18:39:18.129Z,11.88
2022-10-20T18:43:19.798Z,11.43
2022-10-20T18:47:21.489Z,10.80
2022-10-20T18:51:23.832Z,11.27
2022-10-20T18:55:25.555Z,13.65
2022-10-20T18:59:27.255Z,10.98
2022-10-20T19:03:31.439Z,12.75
2022-10-20T19:07:33.505Z,11.43
2022-10-20T19:11:37.613Z,10.70
2022-10-20T19:15:40.356Z,10.55
2022-10-20T19:19:44.175Z,11.23
2022-10-20T19:23:49.928Z,11.55
2022-10-20T19:27:51.561Z,11.27
2022-10-20T19:31:55.852Z,10.57
2022-10-20T19:35:57.540Z,11.45
2022-10-20T19:39:59.284Z,10.98
2022-10-20T19:44:02.129Z,10.20
2022-10-20T19:48:04.298Z,10.52
2022-10-20T19:52:07.184Z,9.82
2022-10-20T19:56:09.675Z,11.32
2022-10-20T20:00:11.520Z,10.30
2022-10-20T20:04:13.205Z,10.23
2022-10-20T20:08:15.059Z,10.20
2022-10-20T20:12:16.745Z,10.75
2022-10-20T20:16:18.677Z,10.73
2022-10-20T20:20:20.422Z,10.15
2022-10-20T20:24:22.152Z,10.02
2022-10-20T20:28:23.889Z,10.27
2022-10-20T20:32:26.172Z,10.45
2022-10-20T20:36:28.635Z,9.68
2022-10-20T20:40:30.348Z,9.98
2022-10-20T20:44:32.034Z,10.18
2022-10-20T20:48:35.760Z,10.38
2022-10-20T20:52:37.406Z,10.02
2022-10-20T20:56:39.084Z,11.18
2022-10-20T21:00:40.823Z,10.70
2022-10-20T21:04:42.712Z,9.70
2022-10-20T21:08:47.458Z,9.88
2022-10-20T21:12:49.215Z,10.38
2022-10-20T21:16:50.820Z,10.65
2022-10-20T21:20:52.516Z,10.20
2022-10-20T21:24:54.199Z,8.90
2022-10-20T21:28:56.650Z,10.15
2022-10-20T21:32:58.356Z,10.13
2022-10-20T21:37:00.027Z,9.98
2022-10-20T21:41:13.404Z,10.95
2022-10-20T21:45:16.914Z,10.75
2022-10-20T21:49:25.093Z,10.90
2022-10-20T21:53:26.818Z,11.25
2022-10-20T21:57:28.517Z,10.48
2022-10-20T22:01:30.382Z,11.55
2022-10-20T22:05:32.142Z,11.60
2022-10-20T22:09:33.881Z,11.88
2022-10-20T22:13:35.674Z,12.10
2022-10-20T22:17:37.684Z,11.63
2022-10-20T22:21:43.334Z,11.57
2022-10-20T22:25:45.175Z,12.37
2022-10-20T22:29:46.932Z,12.82
2022-10-20T22:33:52.578Z,11.55
2022-10-20T22:37:54.489Z,10.98
2022-10-20T22:41:56.113Z,11.25
2022-10-20T22:45:58.317Z,10.70
2022-10-20T22:49:59.995Z,10.85
2022-10-20T22:54:01.664Z,10.65
2022-10-20T22:58:03.585Z,11.48
2022-10-20T23:02:05.306Z,13.30
2022-10-20T23:06:13.332Z,13.35
2022-10-20T23:10:15.088Z,14.15
2022-10-20T23:14:16.807Z,14.87
2022-10-20T23:18:19.239Z,15.32
2022-10-20T23:22:21.245Z,15.95
2022-10-20T23:26:22.975Z,16.77
2022-10-20T23:30:24.709Z,16.17
2022-10-20T23:34:26.497Z,16.92
2022-10-20T23:38:28.287Z,16.55
2022-10-20T23:42:29.995Z,15.43
2022-10-20T23:46:32.545Z,15.68
2022-10-20T23:50:34.262Z,16.10
2022-10-20T23:54:35.939Z,15.20
2022-10-20T23:58:37.592Z,15.27
